sensor_id;sensor_type;location;lat;lon;timestamp;P1;durP1;ratioP1;P2;durP2;ratioP2
2724;SDS011;1370;52.596;13.112;2023-08-06T00:00:20;8.23;;;6.20;;
2724;SDS011;1370;52.596;13.112;2023-08-06T00:02:46;8.80;;;6.63;;
2724;SDS011;1370;52.596;13.112;2023-08-06T00:05:11;6.63;;;5.90;;
2724;SDS011;1370;52.596;13.112;2023-08-06T00:07:37;9.73;;;6.83;;
2724;SDS011;1370;52.596;13.112;2023-08-06T00:10:02;7.13;;;5.90;;
2724;SDS011;1370;52.596;13.112;2023-08-06T00:12:27;6.97;;;6.27;;
2724;SDS011;1370;52.596;13.112;2023-08-06T00:14:53;8.00;;;6.30;;
2724;SDS011;1370;52.596;13.112;2023-08-06T00:17:18;7.50;;;6.80;;
2724;SDS011;1370;52.596;13.112;2023-08-06T00:19:44;10.50;;;6.93;;
2724;SDS011;1370;52.596;13.112;2023-08-06T00:22:09;7.83;;;7.03;;
2724;SDS011;1370;52.596;13.112;2023-08-06T00:24:35;8.83;;;6.23;;
2724;SDS011;1370;52.596;13.112;2023-08-06T00:27:00;12.27;;;6.53;;
2724;SDS011;1370;52.596;13.112;2023-08-06T00:29:25;8.03;;;7.23;;
2724;SDS011;1370;52.596;13.112;2023-08-06T00:31:51;8.90;;;7.97;;
2724;SDS011;1370;52.596;13.112;2023-08-06T00:34:16;7.37;;;6.73;;
2724;SDS011;1370;52.596;13.112;2023-08-06T00:36:41;9.43;;;7.57;;
2724;SDS011;1370;52.596;13.112;2023-08-06T00:39:06;9.60;;;8.70;;
2724;SDS011;1370;52.596;13.112;2023-08-06T00:41:32;9.33;;;6.23;;
2724;SDS011;1370;52.596;13.112;2023-08-06T00:43:57;7.03;;;6.33;;
2724;SDS011;1370;52.596;13.112;2023-08-06T00:46:22;8.87;;;6.40;;
2724;SDS011;1370;52.596;13.112;2023-08-06T00:48:48;7.13;;;6.53;;
2724;SDS011;1370;52.596;13.112;2023-08-06T00:51:14;6.47;;;5.90;;
2724;SDS011;1370;52.596;13.112;2023-08-06T00:53:40;12.27;;;6.63;;
2724;SDS011;1370;52.596;13.112;2023-08-06T00:56:06;8.00;;;6.83;;
2724;SDS011;1370;52.596;13.112;2023-08-06T00:58:32;7.87;;;7.07;;
2724;SDS011;1370;52.596;13.112;2023-08-06T01:00:57;8.40;;;5.83;;
2724;SDS011;1370;52.596;13.112;2023-08-06T01:03:22;8.07;;;7.27;;
2724;SDS011;1370;52.596;13.112;2023-08-06T01:05:48;7.30;;;6.60;;
2724;SDS011;1370;52.596;13.112;2023-08-06T01:14:21;7.77;;;7.00;;
2724;SDS011;1370;52.596;13.112;2023-08-06T01:16:51;10.60;;;7.50;;
2724;SDS011;1370;52.596;13.112;2023-08-06T01:19:37;7.97;;;7.27;;
2724;SDS011;1370;52.596;13.112;2023-08-06T01:22:02;7.63;;;6.93;;
2724;SDS011;1370;52.596;13.112;2023-08-06T01:24:27;8.60;;;7.93;;
2724;SDS011;1370;52.596;13.112;2023-08-06T01:27:13;9.53;;;7.40;;
2724;SDS011;1370;52.596;13.112;2023-08-06T01:30:01;8.60;;;7.30;;
2724;SDS011;1370;52.596;13.112;2023-08-06T01:32:29;9.40;;;7.90;;
2724;SDS011;1370;52.596;13.112;2023-08-06T01:34:56;11.43;;;7.70;;
2724;SDS011;1370;52.596;13.112;2023-08-06T01:37:24;8.60;;;7.70;;
2724;SDS011;1370;52.596;13.112;2023-08-06T01:39:49;9.73;;;7.73;;
2724;SDS011;1370;52.596;13.112;2023-08-06T01:42:14;9.17;;;8.17;;
2724;SDS011;1370;52.596;13.112;2023-08-06T01:44:40;8.10;;;7.37;;
2724;SDS011;1370;52.596;13.112;2023-08-06T01:47:05;7.77;;;6.93;;
2724;SDS011;1370;52.596;13.112;2023-08-06T01:49:30;8.27;;;7.50;;
2724;SDS011;1370;52.596;13.112;2023-08-06T01:51:56;8.20;;;7.40;;
2724;SDS011;1370;52.596;13.112;2023-08-06T01:54:21;9.30;;;6.60;;
2724;SDS011;1370;52.596;13.112;2023-08-06T01:56:47;10.33;;;7.57;;
2724;SDS011;1370;52.596;13.112;2023-08-06T01:59:13;7.50;;;7.00;;
2724;SDS011;1370;52.596;13.112;2023-08-06T02:01:38;8.80;;;7.90;;
2724;SDS011;1370;52.596;13.112;2023-08-06T02:04:03;8.03;;;7.43;;
2724;SDS011;1370;52.596;13.112;2023-08-06T02:06:28;9.20;;;7.40;;
2724;SDS011;1370;52.596;13.112;2023-08-06T02:08:54;7.87;;;7.17;;
2724;SDS011;1370;52.596;13.112;2023-08-06T02:11:19;7.93;;;7.20;;
2724;SDS011;1370;52.596;13.112;2023-08-06T02:13:45;8.43;;;7.60;;
2724;SDS011;1370;52.596;13.112;2023-08-06T02:16:11;9.23;;;8.30;;
2724;SDS011;1370;52.596;13.112;2023-08-06T02:18:36;7.87;;;7.27;;
2724;SDS011;1370;52.596;13.112;2023-08-06T02:21:01;9.20;;;7.10;;
2724;SDS011;1370;52.596;13.112;2023-08-06T02:23:26;10.47;;;9.37;;
2724;SDS011;1370;52.596;13.112;2023-08-06T02:25:59;10.00;;;9.00;;
2724;SDS011;1370;52.596;13.112;2023-08-06T02:28:27;8.00;;;7.40;;
2724;SDS011;1370;52.596;13.112;2023-08-06T02:30:53;8.80;;;8.00;;
2724;SDS011;1370;52.596;13.112;2023-08-06T02:33:18;8.60;;;7.90;;
2724;SDS011;1370;52.596;13.112;2023-08-06T02:35:44;11.87;;;8.60;;
2724;SDS011;1370;52.596;13.112;2023-08-06T02:38:09;8.03;;;7.43;;
2724;SDS011;1370;52.596;13.112;2023-08-06T02:40:34;10.00;;;9.17;;
2724;SDS011;1370;52.596;13.112;2023-08-06T02:42:59;9.10;;;8.20;;
2724;SDS011;1370;52.596;13.112;2023-08-06T02:45:25;8.63;;;7.73;;
2724;SDS011;1370;52.596;13.112;2023-08-06T02:47:50;11.10;;;8.40;;
2724;SDS011;1370;52.596;13.112;2023-08-06T02:50:15;8.47;;;7.83;;
2724;SDS011;1370;52.596;13.112;2023-08-06T02:52:41;8.97;;;8.17;;
2724;SDS011;1370;52.596;13.112;2023-08-06T02:55:06;10.77;;;9.13;;
2724;SDS011;1370;52.596;13.112;2023-08-06T02:57:32;9.73;;;8.80;;
2724;SDS011;1370;52.596;13.112;2023-08-06T02:59:57;9.90;;;9.00;;
2724;SDS011;1370;52.596;13.112;2023-08-06T03:02:22;9.27;;;8.37;;
2724;SDS011;1370;52.596;13.112;2023-08-06T03:04:48;9.20;;;8.30;;
2724;SDS011;1370;52.596;13.112;2023-08-06T03:07:13;12.40;;;8.00;;
2724;SDS011;1370;52.596;13.112;2023-08-06T03:09:38;8.87;;;7.80;;
2724;SDS011;1370;52.596;13.112;2023-08-06T03:12:03;8.67;;;7.97;;
2724;SDS011;1370;52.596;13.112;2023-08-06T03:14:29;9.87;;;8.73;;
2724;SDS011;1370;52.596;13.112;2023-08-06T03:16:54;8.87;;;8.07;;
2724;SDS011;1370;52.596;13.112;2023-08-06T03:19:19;9.10;;;8.20;;
2724;SDS011;1370;52.596;13.112;2023-08-06T03:21:45;9.73;;;8.97;;
2724;SDS011;1370;52.596;13.112;2023-08-06T03:24:10;8.97;;;8.20;;
2724;SDS011;1370;52.596;13.112;2023-08-06T03:26:35;9.53;;;8.63;;
2724;SDS011;1370;52.596;13.112;2023-08-06T03:29:01;9.10;;;8.20;;
2724;SDS011;1370;52.596;13.112;2023-08-06T03:31:26;8.17;;;7.43;;
2724;SDS011;1370;52.596;13.112;2023-08-06T03:33:51;9.07;;;8.20;;
2724;SDS011;1370;52.596;13.112;2023-08-06T03:36:16;9.97;;;9.07;;
2724;SDS011;1370;52.596;13.112;2023-08-06T03:38:42;9.37;;;8.57;;
2724;SDS011;1370;52.596;13.112;2023-08-06T03:41:07;8.30;;;7.70;;
2724;SDS011;1370;52.596;13.112;2023-08-06T03:43:32;10.10;;;9.03;;
2724;SDS011;1370;52.596;13.112;2023-08-06T03:45:57;10.03;;;9.13;;
2724;SDS011;1370;52.596;13.112;2023-08-06T03:48:23;9.60;;;8.30;;
2724;SDS011;1370;52.596;13.112;2023-08-06T03:50:48;10.20;;;9.10;;
2724;SDS011;1370;52.596;13.112;2023-08-06T03:53:13;9.20;;;8.47;;
2724;SDS011;1370;52.596;13.112;2023-08-06T03:55:39;9.50;;;8.60;;
2724;SDS011;1370;52.596;13.112;2023-08-06T03:58:04;8.83;;;8.13;;
2724;SDS011;1370;52.596;13.112;2023-08-06T04:00:29;9.80;;;8.90;;
2724;SDS011;1370;52.596;13.112;2023-08-06T04:02:55;9.50;;;8.47;;
2724;SDS011;1370;52.596;13.112;2023-08-06T04:05:20;9.00;;;8.30;;
2724;SDS011;1370;52.596;13.112;2023-08-06T04:07:46;9.00;;;8.23;;
2724;SDS011;1370;52.596;13.112;2023-08-06T04:10:11;9.80;;;8.67;;
2724;SDS011;1370;52.596;13.112;2023-08-06T04:12:36;10.53;;;8.30;;
2724;SDS011;1370;52.596;13.112;2023-08-06T04:15:04;10.00;;;9.00;;
2724;SDS011;1370;52.596;13.112;2023-08-06T04:17:29;9.53;;;8.63;;
2724;SDS011;1370;52.596;13.112;2023-08-06T04:19:55;8.70;;;8.10;;
2724;SDS011;1370;52.596;13.112;2023-08-06T04:22:23;9.77;;;9.03;;
2724;SDS011;1370;52.596;13.112;2023-08-06T04:24:48;10.07;;;8.67;;
2724;SDS011;1370;52.596;13.112;2023-08-06T04:27:14;8.47;;;7.77;;
2724;SDS011;1370;52.596;13.112;2023-08-06T04:29:40;9.87;;;8.87;;
2724;SDS011;1370;52.596;13.112;2023-08-06T04:32:06;10.30;;;9.20;;
2724;SDS011;1370;52.596;13.112;2023-08-06T04:34:32;10.10;;;9.27;;
2724;SDS011;1370;52.596;13.112;2023-08-06T04:36:58;8.83;;;8.10;;
2724;SDS011;1370;52.596;13.112;2023-08-06T04:39:23;10.70;;;9.00;;
2724;SDS011;1370;52.596;13.112;2023-08-06T04:41:49;9.50;;;8.60;;
2724;SDS011;1370;52.596;13.112;2023-08-06T04:44:14;8.83;;;7.67;;
2724;SDS011;1370;52.596;13.112;2023-08-06T04:46:39;9.00;;;8.30;;
2724;SDS011;1370;52.596;13.112;2023-08-06T04:49:05;11.13;;;9.90;;
2724;SDS011;1370;52.596;13.112;2023-08-06T04:51:30;9.30;;;8.40;;
2724;SDS011;1370;52.596;13.112;2023-08-06T04:53:56;11.37;;;10.27;;
2724;SDS011;1370;52.596;13.112;2023-08-06T04:56:22;9.73;;;8.77;;
2724;SDS011;1370;52.596;13.112;2023-08-06T04:58:47;11.73;;;9.60;;
2724;SDS011;1370;52.596;13.112;2023-08-06T05:01:12;15.30;;;8.20;;
2724;SDS011;1370;52.596;13.112;2023-08-06T05:03:38;10.37;;;9.43;;
2724;SDS011;1370;52.596;13.112;2023-08-06T05:06:03;9.53;;;8.73;;
2724;SDS011;1370;52.596;13.112;2023-08-06T05:08:28;9.53;;;8.73;;
2724;SDS011;1370;52.596;13.112;2023-08-06T05:10:53;10.50;;;9.50;;
2724;SDS011;1370;52.596;13.112;2023-08-06T05:13:19;14.00;;;9.87;;
2724;SDS011;1370;52.596;13.112;2023-08-06T05:15:44;12.60;;;10.00;;
2724;SDS011;1370;52.596;13.112;2023-08-06T05:18:11;12.20;;;10.03;;
2724;SDS011;1370;52.596;13.112;2023-08-06T05:20:40;9.10;;;8.40;;
2724;SDS011;1370;52.596;13.112;2023-08-06T05:23:06;10.90;;;8.87;;
2724;SDS011;1370;52.596;13.112;2023-08-06T05:25:31;9.63;;;8.83;;
2724;SDS011;1370;52.596;13.112;2023-08-06T05:27:56;10.57;;;9.63;;
2724;SDS011;1370;52.596;13.112;2023-08-06T05:30:22;9.50;;;8.60;;
2724;SDS011;1370;52.596;13.112;2023-08-06T05:32:47;9.93;;;8.90;;
2724;SDS011;1370;52.596;13.112;2023-08-06T05:35:12;9.77;;;8.47;;
2724;SDS011;1370;52.596;13.112;2023-08-06T05:37:38;10.83;;;9.03;;
2724;SDS011;1370;52.596;13.112;2023-08-06T05:40:03;9.40;;;8.17;;
2724;SDS011;1370;52.596;13.112;2023-08-06T05:42:29;9.53;;;8.67;;
2724;SDS011;1370;52.596;13.112;2023-08-06T05:44:54;10.80;;;9.70;;
2724;SDS011;1370;52.596;13.112;2023-08-06T05:47:19;10.57;;;9.67;;
2724;SDS011;1370;52.596;13.112;2023-08-06T05:49:45;8.73;;;7.93;;
2724;SDS011;1370;52.596;13.112;2023-08-06T05:52:10;9.70;;;8.70;;
2724;SDS011;1370;52.596;13.112;2023-08-06T05:54:36;9.23;;;8.47;;
2724;SDS011;1370;52.596;13.112;2023-08-06T05:57:01;9.50;;;8.60;;
2724;SDS011;1370;52.596;13.112;2023-08-06T05:59:26;10.27;;;8.93;;
2724;SDS011;1370;52.596;13.112;2023-08-06T06:01:52;10.60;;;9.43;;
2724;SDS011;1370;52.596;13.112;2023-08-06T06:04:17;9.47;;;8.53;;
2724;SDS011;1370;52.596;13.112;2023-08-06T06:06:42;10.17;;;9.07;;
2724;SDS011;1370;52.596;13.112;2023-08-06T06:09:08;9.70;;;8.80;;
2724;SDS011;1370;52.596;13.112;2023-08-06T06:11:33;10.07;;;9.07;;
2724;SDS011;1370;52.596;13.112;2023-08-06T06:13:58;10.63;;;9.63;;
2724;SDS011;1370;52.596;13.112;2023-08-06T06:16:23;10.70;;;9.73;;
2724;SDS011;1370;52.596;13.112;2023-08-06T06:18:49;9.77;;;8.90;;
2724;SDS011;1370;52.596;13.112;2023-08-06T06:21:14;10.13;;;9.27;;
2724;SDS011;1370;52.596;13.112;2023-08-06T06:23:39;9.90;;;9.00;;
2724;SDS011;1370;52.596;13.112;2023-08-06T06:26:05;10.23;;;9.23;;
2724;SDS011;1370;52.596;13.112;2023-08-06T06:28:30;10.63;;;9.60;;
2724;SDS011;1370;52.596;13.112;2023-08-06T06:31:01;13.87;;;10.70;;
2724;SDS011;1370;52.596;13.112;2023-08-06T06:33:27;12.53;;;11.43;;
2724;SDS011;1370;52.596;13.112;2023-08-06T06:35:53;10.70;;;9.73;;
2724;SDS011;1370;52.596;13.112;2023-08-06T06:38:18;10.70;;;9.80;;
2724;SDS011;1370;52.596;13.112;2023-08-06T06:40:43;13.20;;;10.20;;
2724;SDS011;1370;52.596;13.112;2023-08-06T06:43:08;13.57;;;10.40;;
2724;SDS011;1370;52.596;13.112;2023-08-06T06:45:34;9.80;;;9.03;;
2724;SDS011;1370;52.596;13.112;2023-08-06T06:47:59;11.30;;;10.20;;
2724;SDS011;1370;52.596;13.112;2023-08-06T06:50:24;11.27;;;10.20;;
2724;SDS011;1370;52.596;13.112;2023-08-06T06:52:51;9.97;;;9.00;;
2724;SDS011;1370;52.596;13.112;2023-08-06T06:55:16;9.10;;;8.23;;
2724;SDS011;1370;52.596;13.112;2023-08-06T06:57:41;10.67;;;9.57;;
2724;SDS011;1370;52.596;13.112;2023-08-06T07:00:07;10.67;;;9.67;;
2724;SDS011;1370;52.596;13.112;2023-08-06T07:02:32;10.83;;;9.87;;
2724;SDS011;1370;52.596;13.112;2023-08-06T07:04:57;12.40;;;11.17;;
2724;SDS011;1370;52.596;13.112;2023-08-06T07:07:23;13.70;;;11.23;;
2724;SDS011;1370;52.596;13.112;2023-08-06T07:09:48;12.17;;;11.00;;
2724;SDS011;1370;52.596;13.112;2023-08-06T07:12:13;10.63;;;9.63;;
2724;SDS011;1370;52.596;13.112;2023-08-06T07:14:39;13.40;;;11.00;;
2724;SDS011;1370;52.596;13.112;2023-08-06T07:17:04;11.50;;;10.37;;
2724;SDS011;1370;52.596;13.112;2023-08-06T07:19:30;13.10;;;10.10;;
2724;SDS011;1370;52.596;13.112;2023-08-06T07:21:55;13.40;;;10.73;;
2724;SDS011;1370;52.596;13.112;2023-08-06T07:24:21;12.93;;;9.63;;
2724;SDS011;1370;52.596;13.112;2023-08-06T07:26:46;10.80;;;8.53;;
2724;SDS011;1370;52.596;13.112;2023-08-06T07:29:11;11.10;;;10.10;;
2724;SDS011;1370;52.596;13.112;2023-08-06T07:31:36;10.87;;;9.77;;
2724;SDS011;1370;52.596;13.112;2023-08-06T07:34:02;11.53;;;10.43;;
2724;SDS011;1370;52.596;13.112;2023-08-06T07:36:27;11.90;;;10.03;;
2724;SDS011;1370;52.596;13.112;2023-08-06T07:38:52;12.33;;;10.97;;
2724;SDS011;1370;52.596;13.112;2023-08-06T07:41:21;12.00;;;11.00;;
2724;SDS011;1370;52.596;13.112;2023-08-06T07:43:47;10.93;;;10.03;;
2724;SDS011;1370;52.596;13.112;2023-08-06T07:46:12;12.10;;;10.90;;
2724;SDS011;1370;52.596;13.112;2023-08-06T07:48:38;10.90;;;9.90;;
2724;SDS011;1370;52.596;13.112;2023-08-06T07:51:03;13.30;;;12.07;;
2724;SDS011;1370;52.596;13.112;2023-08-06T07:53:29;10.30;;;8.97;;
2724;SDS011;1370;52.596;13.112;2023-08-06T07:55:54;11.50;;;10.23;;
2724;SDS011;1370;52.596;13.112;2023-08-06T07:58:20;13.93;;;8.83;;
2724;SDS011;1370;52.596;13.112;2023-08-06T08:00:46;9.43;;;8.70;;
2724;SDS011;1370;52.596;13.112;2023-08-06T08:03:12;11.40;;;10.27;;
2724;SDS011;1370;52.596;13.112;2023-08-06T08:05:38;11.10;;;10.00;;
2724;SDS011;1370;52.596;13.112;2023-08-06T08:08:04;9.67;;;8.87;;
2724;SDS011;1370;52.596;13.112;2023-08-06T08:10:29;11.10;;;10.03;;
2724;SDS011;1370;52.596;13.112;2023-08-06T08:12:54;11.47;;;10.40;;
2724;SDS011;1370;52.596;13.112;2023-08-06T08:15:19;10.97;;;10.00;;
2724;SDS011;1370;52.596;13.112;2023-08-06T08:17:45;10.73;;;9.83;;
2724;SDS011;1370;52.596;13.112;2023-08-06T08:20:12;10.93;;;9.83;;
2724;SDS011;1370;52.596;13.112;2023-08-06T08:22:37;11.67;;;10.57;;
2724;SDS011;1370;52.596;13.112;2023-08-06T08:25:03;13.13;;;10.77;;
2724;SDS011;1370;52.596;13.112;2023-08-06T08:27:28;12.63;;;10.57;;
2724;SDS011;1370;52.596;13.112;2023-08-06T08:29:54;11.20;;;10.10;;
2724;SDS011;1370;52.596;13.112;2023-08-06T08:32:20;12.30;;;11.20;;
2724;SDS011;1370;52.596;13.112;2023-08-06T08:34:45;11.37;;;10.30;;
2724;SDS011;1370;52.596;13.112;2023-08-06T08:37:10;11.03;;;10.00;;
2724;SDS011;1370;52.596;13.112;2023-08-06T08:39:36;11.23;;;10.00;;
2724;SDS011;1370;52.596;13.112;2023-08-06T08:42:01;11.20;;;9.97;;
2724;SDS011;1370;52.596;13.112;2023-08-06T08:44:28;11.90;;;10.77;;
2724;SDS011;1370;52.596;13.112;2023-08-06T08:46:55;12.00;;;10.50;;
2724;SDS011;1370;52.596;13.112;2023-08-06T08:49:21;12.20;;;11.00;;
2724;SDS011;1370;52.596;13.112;2023-08-06T08:51:46;14.33;;;13.03;;
2724;SDS011;1370;52.596;13.112;2023-08-06T08:54:12;10.47;;;9.67;;
2724;SDS011;1370;52.596;13.112;2023-08-06T08:56:38;11.43;;;10.63;;
2724;SDS011;1370;52.596;13.112;2023-08-06T08:59:03;10.30;;;9.40;;
2724;SDS011;1370;52.596;13.112;2023-08-06T09:01:29;10.80;;;9.70;;
2724;SDS011;1370;52.596;13.112;2023-08-06T09:03:54;10.77;;;9.70;;
2724;SDS011;1370;52.596;13.112;2023-08-06T09:06:20;10.73;;;9.83;;
2724;SDS011;1370;52.596;13.112;2023-08-06T09:08:51;10.93;;;9.90;;
2724;SDS011;1370;52.596;13.112;2023-08-06T09:11:22;11.27;;;10.13;;
2724;SDS011;1370;52.596;13.112;2023-08-06T09:13:47;12.23;;;10.93;;
2724;SDS011;1370;52.596;13.112;2023-08-06T09:16:12;11.80;;;10.80;;
2724;SDS011;1370;52.596;13.112;2023-08-06T09:18:38;12.33;;;11.17;;
2724;SDS011;1370;52.596;13.112;2023-08-06T09:21:04;11.63;;;10.63;;
2724;SDS011;1370;52.596;13.112;2023-08-06T09:23:32;11.93;;;10.73;;
2724;SDS011;1370;52.596;13.112;2023-08-06T09:25:58;12.13;;;10.20;;
2724;SDS011;1370;52.596;13.112;2023-08-06T09:28:24;11.90;;;10.70;;
2724;SDS011;1370;52.596;13.112;2023-08-06T09:30:49;11.80;;;10.60;;
2724;SDS011;1370;52.596;13.112;2023-08-06T09:33:18;12.53;;;11.43;;
2724;SDS011;1370;52.596;13.112;2023-08-06T09:35:45;15.00;;;10.70;;
2724;SDS011;1370;52.596;13.112;2023-08-06T09:38:11;10.90;;;9.90;;
2724;SDS011;1370;52.596;13.112;2023-08-06T09:40:37;23.60;;;19.80;;
2724;SDS011;1370;52.596;13.112;2023-08-06T09:43:03;12.97;;;11.67;;
2724;SDS011;1370;52.596;13.112;2023-08-06T09:45:35;10.17;;;9.17;;
2724;SDS011;1370;52.596;13.112;2023-08-06T09:48:05;10.20;;;9.20;;
2724;SDS011;1370;52.596;13.112;2023-08-06T09:50:31;9.83;;;9.00;;
2724;SDS011;1370;52.596;13.112;2023-08-06T09:52:58;13.13;;;10.23;;
2724;SDS011;1370;52.596;13.112;2023-08-06T09:55:27;11.90;;;10.70;;
2724;SDS011;1370;52.596;13.112;2023-08-06T09:57:53;10.87;;;9.87;;
2724;SDS011;1370;52.596;13.112;2023-08-06T10:00:19;10.87;;;9.97;;
2724;SDS011;1370;52.596;13.112;2023-08-06T10:02:45;11.87;;;10.67;;
2724;SDS011;1370;52.596;13.112;2023-08-06T10:05:10;11.40;;;10.33;;
2724;SDS011;1370;52.596;13.112;2023-08-06T10:07:36;10.67;;;9.80;;
2724;SDS011;1370;52.596;13.112;2023-08-06T10:10:04;11.43;;;9.70;;
2724;SDS011;1370;52.596;13.112;2023-08-06T10:12:32;11.57;;;10.37;;
2724;SDS011;1370;52.596;13.112;2023-08-06T10:14:59;10.20;;;9.30;;
2724;SDS011;1370;52.596;13.112;2023-08-06T10:17:27;11.77;;;9.27;;
2724;SDS011;1370;52.596;13.112;2023-08-06T10:19:52;11.20;;;10.07;;
2724;SDS011;1370;52.596;13.112;2023-08-06T10:22:20;11.03;;;9.93;;
2724;SDS011;1370;52.596;13.112;2023-08-06T10:24:47;10.57;;;9.60;;
2724;SDS011;1370;52.596;13.112;2023-08-06T10:27:13;12.80;;;11.47;;
2724;SDS011;1370;52.596;13.112;2023-08-06T10:29:38;9.97;;;9.07;;
2724;SDS011;1370;52.596;13.112;2023-08-06T10:32:04;12.17;;;10.60;;
2724;SDS011;1370;52.596;13.112;2023-08-06T10:34:54;9.60;;;8.70;;
2724;SDS011;1370;52.596;13.112;2023-08-06T10:37:22;11.47;;;10.47;;
2724;SDS011;1370;52.596;13.112;2023-08-06T10:39:50;11.37;;;10.13;;
2724;SDS011;1370;52.596;13.112;2023-08-06T10:42:26;10.03;;;9.00;;
2724;SDS011;1370;52.596;13.112;2023-08-06T10:45:11;10.50;;;9.50;;
2724;SDS011;1370;52.596;13.112;2023-08-06T10:47:41;11.00;;;9.90;;
2724;SDS011;1370;52.596;13.112;2023-08-06T10:50:07;10.53;;;9.63;;
2724;SDS011;1370;52.596;13.112;2023-08-06T10:52:33;8.43;;;7.73;;
2724;SDS011;1370;52.596;13.112;2023-08-06T10:54:59;10.60;;;9.60;;
2724;SDS011;1370;52.596;13.112;2023-08-06T10:57:24;10.40;;;9.50;;
2724;SDS011;1370;52.596;13.112;2023-08-06T10:59:49;10.50;;;9.70;;
2724;SDS011;1370;52.596;13.112;2023-08-06T11:02:15;15.43;;;9.50;;
2724;SDS011;1370;52.596;13.112;2023-08-06T11:04:41;12.73;;;9.93;;
2724;SDS011;1370;52.596;13.112;2023-08-06T11:07:06;10.03;;;9.13;;
2724;SDS011;1370;52.596;13.112;2023-08-06T11:09:32;11.70;;;10.80;;
2724;SDS011;1370;52.596;13.112;2023-08-06T11:11:57;10.43;;;9.23;;
2724;SDS011;1370;52.596;13.112;2023-08-06T11:14:22;10.80;;;9.90;;
2724;SDS011;1370;52.596;13.112;2023-08-06T11:16:48;11.00;;;9.90;;
2724;SDS011;1370;52.596;13.112;2023-08-06T11:19:13;10.90;;;9.53;;
2724;SDS011;1370;52.596;13.112;2023-08-06T11:21:41;10.73;;;9.83;;
2724;SDS011;1370;52.596;13.112;2023-08-06T11:24:09;11.50;;;10.37;;
2724;SDS011;1370;52.596;13.112;2023-08-06T11:26:36;9.77;;;8.90;;
2724;SDS011;1370;52.596;13.112;2023-08-06T11:29:02;13.07;;;10.37;;
2724;SDS011;1370;52.596;13.112;2023-08-06T11:31:27;11.00;;;8.70;;
2724;SDS011;1370;52.596;13.112;2023-08-06T11:33:53;11.47;;;10.50;;
2724;SDS011;1370;52.596;13.112;2023-08-06T11:36:32;14.23;;;12.67;;
2724;SDS011;1370;52.596;13.112;2023-08-06T11:38:59;11.00;;;10.00;;
2724;SDS011;1370;52.596;13.112;2023-08-06T11:41:24;9.90;;;9.10;;
2724;SDS011;1370;52.596;13.112;2023-08-06T11:43:50;11.97;;;10.87;;
2724;SDS011;1370;52.596;13.112;2023-08-06T11:46:15;12.77;;;11.60;;
2724;SDS011;1370;52.596;13.112;2023-08-06T11:48:53;11.43;;;10.33;;
2724;SDS011;1370;52.596;13.112;2023-08-06T11:51:22;12.07;;;10.97;;
2724;SDS011;1370;52.596;13.112;2023-08-06T11:54:06;12.37;;;11.17;;
2724;SDS011;1370;52.596;13.112;2023-08-06T11:56:32;14.30;;;11.87;;
2724;SDS011;1370;52.596;13.112;2023-08-06T11:58:57;12.90;;;11.77;;
2724;SDS011;1370;52.596;13.112;2023-08-06T12:01:22;12.77;;;11.30;;
2724;SDS011;1370;52.596;13.112;2023-08-06T12:03:48;12.13;;;10.87;;
2724;SDS011;1370;52.596;13.112;2023-08-06T12:06:13;13.47;;;12.20;;
2724;SDS011;1370;52.596;13.112;2023-08-06T12:08:38;12.27;;;11.00;;
2724;SDS011;1370;52.596;13.112;2023-08-06T12:11:03;13.50;;;12.10;;
2724;SDS011;1370;52.596;13.112;2023-08-06T12:13:29;12.53;;;11.33;;
2724;SDS011;1370;52.596;13.112;2023-08-06T12:15:54;13.50;;;11.40;;
2724;SDS011;1370;52.596;13.112;2023-08-06T12:18:22;13.30;;;10.97;;
2724;SDS011;1370;52.596;13.112;2023-08-06T12:20:47;13.07;;;11.80;;
2724;SDS011;1370;52.596;13.112;2023-08-06T12:23:12;11.80;;;10.70;;
2724;SDS011;1370;52.596;13.112;2023-08-06T12:25:40;12.23;;;11.13;;
2724;SDS011;1370;52.596;13.112;2023-08-06T12:28:06;13.17;;;11.90;;
2724;SDS011;1370;52.596;13.112;2023-08-06T12:30:32;8.70;;;8.00;;
2724;SDS011;1370;52.596;13.112;2023-08-06T12:32:57;7.20;;;6.60;;
2724;SDS011;1370;52.596;13.112;2023-08-06T12:35:23;6.97;;;6.37;;
2724;SDS011;1370;52.596;13.112;2023-08-06T12:37:50;5.97;;;5.47;;
2724;SDS011;1370;52.596;13.112;2023-08-06T12:40:19;6.93;;;5.60;;
2724;SDS011;1370;52.596;13.112;2023-08-06T12:42:44;6.33;;;5.93;;
2724;SDS011;1370;52.596;13.112;2023-08-06T12:45:09;6.43;;;5.93;;
2724;SDS011;1370;52.596;13.112;2023-08-06T12:47:35;5.50;;;5.00;;
2724;SDS011;1370;52.596;13.112;2023-08-06T12:50:00;6.67;;;5.30;;
2724;SDS011;1370;52.596;13.112;2023-08-06T12:52:25;12.40;;;6.37;;
2724;SDS011;1370;52.596;13.112;2023-08-06T12:54:50;7.73;;;5.60;;
2724;SDS011;1370;52.596;13.112;2023-08-06T12:57:16;7.03;;;6.37;;
2724;SDS011;1370;52.596;13.112;2023-08-06T12:59:42;7.90;;;7.10;;
2724;SDS011;1370;52.596;13.112;2023-08-06T13:02:07;8.17;;;7.37;;
2724;SDS011;1370;52.596;13.112;2023-08-06T13:04:32;7.87;;;7.00;;
2724;SDS011;1370;52.596;13.112;2023-08-06T13:06:59;9.20;;;8.10;;
2724;SDS011;1370;52.596;13.112;2023-08-06T13:09:24;8.93;;;8.03;;
2724;SDS011;1370;52.596;13.112;2023-08-06T13:11:50;8.57;;;7.80;;
2724;SDS011;1370;52.596;13.112;2023-08-06T13:14:16;8.00;;;7.30;;
2724;SDS011;1370;52.596;13.112;2023-08-06T13:16:42;8.47;;;7.77;;
2724;SDS011;1370;52.596;13.112;2023-08-06T13:19:08;10.20;;;9.27;;
2724;SDS011;1370;52.596;13.112;2023-08-06T13:22:19;8.70;;;7.97;;
2724;SDS011;1370;52.596;13.112;2023-08-06T13:24:30;9.60;;;8.70;;
2724;SDS011;1370;52.596;13.112;2023-08-06T13:26:55;11.50;;;8.53;;
2724;SDS011;1370;52.596;13.112;2023-08-06T13:29:20;12.23;;;9.20;;
2724;SDS011;1370;52.596;13.112;2023-08-06T13:31:46;10.63;;;9.63;;
2724;SDS011;1370;52.596;13.112;2023-08-06T13:34:11;10.13;;;9.10;;
2724;SDS011;1370;52.596;13.112;2023-08-06T13:36:36;16.53;;;8.87;;
2724;SDS011;1370;52.596;13.112;2023-08-06T13:39:02;8.80;;;6.63;;
2724;SDS011;1370;52.596;13.112;2023-08-06T13:41:28;7.13;;;6.43;;
2724;SDS011;1370;52.596;13.112;2023-08-06T13:43:53;6.70;;;6.20;;
2724;SDS011;1370;52.596;13.112;2023-08-06T13:46:19;6.23;;;5.50;;
2724;SDS011;1370;52.596;13.112;2023-08-06T13:48:44;6.80;;;6.10;;
2724;SDS011;1370;52.596;13.112;2023-08-06T13:51:11;6.83;;;6.20;;
2724;SDS011;1370;52.596;13.112;2023-08-06T13:53:37;12.07;;;7.33;;
2724;SDS011;1370;52.596;13.112;2023-08-06T13:56:03;6.57;;;6.03;;
2724;SDS011;1370;52.596;13.112;2023-08-06T13:58:32;10.43;;;9.00;;
2724;SDS011;1370;52.596;13.112;2023-08-06T14:00:57;10.90;;;7.60;;
2724;SDS011;1370;52.596;13.112;2023-08-06T14:03:23;15.20;;;12.90;;
2724;SDS011;1370;52.596;13.112;2023-08-06T14:05:48;10.50;;;7.90;;
2724;SDS011;1370;52.596;13.112;2023-08-06T14:11:35;7.37;;;6.70;;
2724;SDS011;1370;52.596;13.112;2023-08-06T14:14:01;6.97;;;6.33;;
2724;SDS011;1370;52.596;13.112;2023-08-06T14:16:26;8.03;;;7.17;;
2724;SDS011;1370;52.596;13.112;2023-08-06T14:18:51;10.43;;;7.77;;
2724;SDS011;1370;52.596;13.112;2023-08-06T14:21:16;9.77;;;6.77;;
2724;SDS011;1370;52.596;13.112;2023-08-06T14:23:42;9.33;;;6.93;;
2724;SDS011;1370;52.596;13.112;2023-08-06T14:26:07;7.33;;;6.80;;
2724;SDS011;1370;52.596;13.112;2023-08-06T14:28:33;8.00;;;7.30;;
2724;SDS011;1370;52.596;13.112;2023-08-06T14:30:58;7.47;;;6.77;;
2724;SDS011;1370;52.596;13.112;2023-08-06T14:33:23;9.00;;;7.53;;
2724;SDS011;1370;52.596;13.112;2023-08-06T14:35:49;11.93;;;8.77;;
2724;SDS011;1370;52.596;13.112;2023-08-06T14:38:14;7.70;;;7.07;;
2724;SDS011;1370;52.596;13.112;2023-08-06T14:40:39;8.83;;;7.37;;
2724;SDS011;1370;52.596;13.112;2023-08-06T14:43:05;7.87;;;7.07;;
2724;SDS011;1370;52.596;13.112;2023-08-06T14:45:30;8.57;;;7.67;;
2724;SDS011;1370;52.596;13.112;2023-08-06T14:47:56;13.47;;;7.90;;
2724;SDS011;1370;52.596;13.112;2023-08-06T14:50:21;9.60;;;8.40;;
2724;SDS011;1370;52.596;13.112;2023-08-06T14:52:47;13.90;;;7.73;;